Time;durP1;ratioP1;P1;durP2;ratioP2;P2;SDS_P1;SDS_P2;PMS_P1;PMS_P2;Temp;Humidity;BMP_temperature;BMP_pressure;BME280_temperature;BME280_humidity;BME280_pressure;Samples;Min_cycle;Max_cycle;Signal;HPM_P1;HPM_P2
2022/10/03 03:01:49;;;;;;;0.90;0.90;;;14.10;85.10;;;;;;5759585;23;20495;-74
2022/10/03 03:04:46;;;;;;;0.90;0.90;;;14.00;85.10;;;;;;4993996;28;20452;-74
2022/10/03 03:07:37;;;;;;;0.80;0.80;;;14.00;84.90;;;;;;4996440;28;20503;-72
2022/10/03 03:10:52;;;;;;;0.80;0.80;;;14.00;84.70;;;;;;4996464;28;20481;-73
2022/10/03 03:13:58;;;;;;;0.80;0.80;;;13.90;84.40;;;;;;4950088;28;20490;-73
2022/10/03 03:16:56;;;;;;;0.70;0.70;;;13.90;84.30;;;;;;4948720;28;20965;-74
2022/10/03 03:19:48;;;;;;;0.80;0.80;;;13.70;84.30;;;;;;4976565;28;20805;-73
2022/10/03 03:22:31;;;;;;;0.90;0.90;;;13.70;84.10;;;;;;4976759;28;20509;-74
2022/10/03 03:25:39;;;;;;;0.70;0.70;;;13.60;84.20;;;;;;4977187;28;20435;-74
2022/10/03 03:28:22;;;;;;;0.70;0.70;;;13.50;84.10;;;;;;4968536;28;20466;-73
2022/10/03 03:31:00;;;;;;;0.80;0.80;;;13.50;84.20;;;;;;4976476;28;20466;-74
2022/10/03 03:33:35;;;;;;;0.80;0.80;;;13.40;83.90;;;;;;4976464;28;20470;-73
2022/10/03 03:36:10;;;;;;;0.77;0.77;;;13.40;84.00;;;;;;4976222;28;20976;-73
2022/10/03 03:38:47;;;;;;;0.80;0.80;;;13.30;83.80;;;;;;4976451;28;20434;-73
2022/10/03 03:41:30;;;;;;;0.70;0.70;;;13.30;83.90;;;;;;4976740;28;20473;-73
2022/10/03 03:44:24;;;;;;;0.83;0.83;;;13.20;84.00;;;;;;4976336;28;20434;-73
2022/10/03 03:47:07;;;;;;;0.87;0.87;;;13.20;84.10;;;;;;4975953;28;20929;-73
2022/10/03 03:49:51;;;;;;;0.83;0.77;;;13.10;83.90;;;;;;4975974;28;20906;-73
2022/10/03 03:52:38;;;;;;;1.00;1.00;;;13.00;84.00;;;;;;4976080;28;20516;-73
2022/10/03 03:55:33;;;;;;;0.80;0.80;;;13.00;84.10;;;;;;4976129;28;20478;-73
2022/10/03 03:58:22;;;;;;;0.90;0.90;;;13.00;83.90;;;;;;4976082;28;20834;-73
2022/10/03 04:01:05;;;;;;;0.80;0.80;;;13.00;84.10;;;;;;4975328;28;20470;-72
2022/10/03 04:03:45;;;;;;;1.10;1.00;;;13.00;84.40;;;;;;4975978;28;20431;-73
2022/10/03 04:06:36;;;;;;;1.10;1.00;;;12.90;84.90;;;;;;4975900;28;20442;-73
2022/10/03 04:09:40;;;;;;;1.20;1.10;;;12.90;85.00;;;;;;4975535;28;20914;-73
2022/10/03 04:12:20;;;;;;;1.03;1.00;;;13.00;85.30;;;;;;4975580;28;20502;-73
2022/10/03 04:15:07;;;;;;;1.37;1.27;;;13.00;85.60;;;;;;4975751;28;20439;-73
2022/10/03 04:21:00;;;;;;;1.33;1.23;;;13.00;85.90;;;;;;4975390;28;20425;-73
2022/10/03 04:23:46;;;;;;;2.30;1.90;;;13.10;86.00;;;;;;4975410;28;20441;-73
2022/10/03 04:26:30;;;;;;;1.83;1.47;;;13.10;86.10;;;;;;4975558;28;20525;-73
2022/10/03 04:29:24;;;;;;;1.70;1.60;;;13.10;86.20;;;;;;4975488;28;20439;-73
2022/10/03 04:31:58;;;;;;;2.80;2.00;;;13.10;86.10;;;;;;4975337;28;20485;-73
2022/10/03 04:34:36;;;;;;;2.80;2.00;;;13.10;86.10;;;;;;4975089;28;20856;-73
2022/10/03 04:37:18;;;;;;;1.93;1.83;;;13.10;86.20;;;;;;4975367;28;20493;-73
2022/10/03 04:39:57;;;;;;;1.10;1.10;;;13.10;86.40;;;;;;4975317;28;20470;-73
2022/10/03 04:42:41;;;;;;;1.63;0.90;;;13.10;86.50;;;;;;4975186;28;20463;-73
2022/10/03 04:45:27;;;;;;;0.80;0.80;;;13.10;86.60;;;;;;4974925;28;20902;-73
2022/10/03 04:48:06;;;;;;;1.00;1.00;;;13.10;86.70;;;;;;4975339;28;20442;-73
2022/10/03 04:50:40;;;;;;;1.07;0.83;;;13.10;86.70;;;;;;4975016;28;20514;-73
2022/10/03 04:53:26;;;;;;;0.90;0.90;;;13.10;86.50;;;;;;4975094;28;20473;-73
2022/10/03 04:56:08;;;;;;;0.80;0.80;;;13.10;86.10;;;;;;4974773;28;20438;-73
2022/10/03 04:58:39;;;;;;;0.73;0.73;;;13.10;85.60;;;;;;4975010;28;20457;-73
2022/10/03 05:01:14;;;;;;;0.90;0.90;;;13.20;85.50;;;;;;4974746;28;20505;-73
2022/10/03 05:03:52;;;;;;;0.90;0.90;;;13.20;85.20;;;;;;4975018;28;20516;-73
2022/10/03 05:06:31;;;;;;;1.00;0.90;;;13.10;84.90;;;;;;4974910;28;20465;-73
2022/10/03 05:09:13;;;;;;;1.33;0.90;;;13.00;85.10;;;;;;4974546;28;20909;-73
2022/10/03 05:11:50;;;;;;;1.00;1.00;;;13.00;85.20;;;;;;4974442;28;20985;-73
2022/10/03 05:14:27;;;;;;;1.00;1.00;;;13.00;85.40;;;;;;4974528;28;20446;-73
2022/10/03 05:17:02;;;;;;;0.90;0.90;;;13.00;85.90;;;;;;4974473;28;20813;-73
2022/10/03 05:19:44;;;;;;;0.90;0.90;;;13.00;85.70;;;;;;4974754;28;20561;-73
2022/10/03 05:22:22;;;;;;;1.27;1.17;;;13.10;85.60;;;;;;4974630;28;20465;-73
2022/10/03 05:24:56;;;;;;;0.93;0.93;;;13.10;85.70;;;;;;4974720;28;20430;-73
2022/10/03 05:27:33;;;;;;;1.07;0.97;;;13.20;85.70;;;;;;4974666;28;20437;-73
2022/10/03 05:30:05;;;;;;;0.90;0.90;;;13.20;85.90;;;;;;4974782;28;20461;-73
2022/10/03 05:32:38;;;;;;;0.70;0.70;;;13.20;85.80;;;;;;4974532;28;20630;-73
2022/10/03 05:35:27;;;;;;;0.90;0.90;;;13.30;85.70;;;;;;4974577;28;20438;-73
2022/10/03 05:38:20;;;;;;;0.80;0.80;;;13.30;85.70;;;;;;4978668;28;20497;-72
2022/10/03 05:40:59;;;;;;;0.80;0.80;;;13.40;85.80;;;;;;4978491;28;20540;-72
2022/10/03 05:43:36;;;;;;;0.80;0.80;;;13.40;85.70;;;;;;4978533;28;20464;-73
2022/10/03 05:46:10;;;;;;;0.90;0.90;;;13.40;85.70;;;;;;4978540;28;20441;-73
2022/10/03 05:48:47;;;;;;;0.80;0.80;;;13.40;85.80;;;;;;4979259;28;20489;-73
2022/10/03 05:51:45;;;;;;;0.80;0.80;;;13.50;85.80;;;;;;4978345;28;20469;-73
2022/10/03 05:54:57;;;;;;;0.93;0.93;;;13.40;85.80;;;;;;4978312;28;20422;-73
2022/10/03 05:57:51;;;;;;;0.80;0.80;;;13.50;86.10;;;;;;4978283;28;20437;-73
2022/10/03 06:00:25;;;;;;;1.00;1.00;;;13.40;86.30;;;;;;4978232;28;20430;-73
2022/10/03 06:03:21;;;;;;;1.10;1.10;;;13.50;86.40;;;;;;4977791;28;20963;-73
2022/10/03 06:06:19;;;;;;;1.30;1.30;;;13.50;86.40;;;;;;4978157;28;20485;-73
2022/10/03 06:09:10;;;;;;;1.30;1.20;;;13.50;86.60;;;;;;4978020;28;20453;-73
2022/10/03 06:12:02;;;;;;;1.40;1.30;;;13.60;86.50;;;;;;4978011;28;20536;-72
2022/10/03 06:14:42;;;;;;;1.50;1.40;;;13.60;86.60;;;;;;4980210;28;20446;-72
2022/10/03 06:17:28;;;;;;;1.60;1.50;;;13.60;86.70;;;;;;4979916;28;20434;-73
2022/10/03 06:20:01;;;;;;;1.50;1.40;;;13.60;86.90;;;;;;4977788;28;20458;-73
2022/10/03 06:23:22;;;;;;;1.40;1.30;;;13.70;86.80;;;;;;4977416;28;20996;-73
2022/10/03 06:26:13;;;;;;;1.90;1.80;;;13.70;86.80;;;;;;4977701;28;20485;-72
2022/10/03 06:28:56;;;;;;;1.83;1.73;;;13.70;86.60;;;;;;4977656;28;20447;-73
2022/10/03 06:32:12;;;;;;;1.50;1.50;;;13.60;87.00;;;;;;4977718;28;20473;-73
2022/10/03 06:35:16;;;;;;;1.90;1.80;;;13.70;87.30;;;;;;4977422;28;20498;-73
2022/10/03 06:38:14;;;;;;;1.80;1.70;;;13.70;87.00;;;;;;4962483;28;20456;-73
2022/10/03 06:41:20;;;;;;;1.60;1.50;;;13.80;86.80;;;;;;4977263;28;20450;-73
2022/10/03 06:44:01;;;;;;;1.80;1.70;;;13.80;86.60;;;;;;4977313;28;20442;-73
2022/10/03 06:47:00;;;;;;;1.60;1.53;;;13.80;86.60;;;;;;4977815;28;20430;-73
2022/10/03 06:50:04;;;;;;;1.60;1.50;;;13.90;86.40;;;;;;4974467;28;20462;-73
2022/10/03 06:53:14;;;;;;;1.83;1.73;;;13.90;86.40;;;;;;4917277;29;20604;-73
2022/10/03 06:56:37;;;;;;;1.60;1.50;;;14.00;86.40;;;;;;4890753;29;20533;-73
2022/10/03 06:59:40;;;;;;;1.40;1.40;;;14.10;86.20;;;;;;4936710;29;20441;-73
2022/10/03 07:02:40;;;;;;;1.50;1.50;;;14.10;85.10;;;;;;4976596;28;20564;-72
2022/10/03 07:05:59;;;;;;;1.30;1.27;;;14.20;84.90;;;;;;4977400;28;20437;-73
2022/10/03 07:08:58;;;;;;;1.40;1.40;;;14.40;84.80;;;;;;4977525;28;20482;-73
2022/10/03 07:11:48;;;;;;;1.40;1.30;;;14.40;84.20;;;;;;4976521;28;20974;-73
2022/10/03 07:14:46;;;;;;;1.47;1.37;;;14.50;84.20;;;;;;4976764;28;20474;-73
2022/10/03 07:17:36;;;;;;;1.30;1.30;;;14.50;84.20;;;;;;4976690;28;20454;-73
2022/10/03 07:20:26;;;;;;;1.27;1.27;;;14.50;83.90;;;;;;4944579;28;20454;-74
2022/10/03 07:23:34;;;;;;;1.33;1.23;;;14.40;84.30;;;;;;4976318;28;20925;-73
2022/10/03 07:26:39;;;;;;;1.50;1.50;;;14.40;84.50;;;;;;4977217;28;20446;-73
2022/10/03 07:29:15;;;;;;;1.50;1.40;;;14.40;84.40;;;;;;4980474;28;20430;-74
2022/10/03 07:32:08;;;;;;;1.47;1.37;;;14.40;84.30;;;;;;4979884;28;20462;-73
2022/10/03 07:35:06;;;;;;;1.40;1.30;;;14.40;84.00;;;;;;4967310;28;20489;-74
2022/10/03 07:41:24;;;;;;;1.40;1.33;;;14.40;83.50;;;;;;4980871;28;20508;-74
2022/10/03 07:44:09;;;;;;;1.30;1.20;;;14.30;83.80;;;;;;4920684;29;20445;-73
2022/10/03 07:47:04;;;;;;;1.40;1.30;;;14.30;83.90;;;;;;4937828;28;20497;-72
2022/10/03 07:49:58;;;;;;;1.43;1.30;;;14.30;84.10;;;;;;4976110;28;20493;-73
2022/10/03 07:52:53;;;;;;;1.77;1.67;;;14.40;84.10;;;;;;4975938;28;20801;-73
2022/10/03 07:55:38;;;;;;;1.10;1.10;;;14.40;84.00;;;;;;4975972;28;20442;-73
2022/10/03 07:58:36;;;;;;;1.43;1.43;;;14.40;84.20;;;;;;4975464;28;20439;-73
2022/10/03 08:01:20;;;;;;;1.50;1.40;;;14.40;84.20;;;;;;4954692;28;20557;-73
2022/10/03 08:04:35;;;;;;;1.20;1.20;;;14.40;83.90;;;;;;4975813;28;20431;-73
2022/10/03 08:07:24;;;;;;;1.60;1.50;;;14.40;84.00;;;;;;4975688;28;20450;-73
2022/10/03 08:10:15;;;;;;;1.50;1.40;;;14.50;83.80;;;;;;4975911;28;20430;-73
2022/10/03 08:13:01;;;;;;;1.30;1.20;;;14.50;83.90;;;;;;4974088;28;20489;-73
2022/10/03 08:15:45;;;;;;;1.30;1.30;;;14.50;83.60;;;;;;4975943;28;20454;-73
2022/10/03 08:18:41;;;;;;;1.50;1.40;;;14.60;83.60;;;;;;4975579;28;20430;-73
2022/10/03 08:21:10;;;;;;;1.43;1.40;;;14.70;83.50;;;;;;4975197;28;20474;-72
2022/10/03 08:24:16;;;;;;;1.23;1.20;;;14.70;83.20;;;;;;4975635;28;20447;-72
2022/10/03 08:27:05;;;;;;;1.63;1.53;;;14.70;83.20;;;;;;4975164;28;20910;-73
2022/10/03 08:29:56;;;;;;;1.50;1.40;;;14.80;83.30;;;;;;4975455;28;20823;-72
2022/10/03 08:32:52;;;;;;;1.53;1.43;;;14.80;82.90;;;;;;4975374;28;20466;-73
2022/10/03 08:35:37;;;;;;;1.23;1.23;;;14.90;83.00;;;;;;4975032;28;20446;-72
2022/10/03 08:38:32;;;;;;;1.20;1.20;;;15.00;83.30;;;;;;4975443;28;20469;-73
2022/10/03 08:41:40;;;;;;;1.00;1.00;;;15.00;82.90;;;;;;4975208;28;20466;-73
2022/10/03 08:44:45;;;;;;;1.33;1.33;;;14.90;82.10;;;;;;4946920;28;21004;-74
2022/10/03 08:47:57;;;;;;;1.17;1.17;;;14.90;81.40;;;;;;4976115;28;20441;-74
2022/10/03 08:50:44;;;;;;;1.83;1.73;;;14.90;81.30;;;;;;4975107;28;20489;-75
2022/10/03 08:53:52;;;;;;;1.27;1.17;;;14.90;82.00;;;;;;4975017;28;20481;-74
2022/10/03 08:56:27;;;;;;;1.40;1.30;;;15.00;82.30;;;;;;4954199;28;20462;-75
2022/10/03 08:59:29;;;;;;;1.20;1.20;;;14.90;81.80;;;;;;4975024;28;20433;-75
2022/10/03 09:02:29;;;;;;;1.30;1.30;;;14.80;82.00;;;;;;4974391;28;20490;-75
2022/10/03 09:05:27;;;;;;;1.20;1.20;;;14.70;82.70;;;;;;4972497;28;20509;-75
2022/10/03 09:08:30;;;;;;;1.50;1.40;;;14.80;82.80;;;;;;4974329;28;20462;-75
2022/10/03 09:11:27;;;;;;;1.70;1.30;;;14.90;82.80;;;;;;4974422;28;20461;-75
2022/10/03 09:14:30;;;;;;;1.20;1.20;;;14.90;83.40;;;;;;4977975;28;20477;-76
2022/10/03 09:17:32;;;;;;;1.10;1.10;;;14.80;83.30;;;;;;4979585;28;20419;-76
2022/10/03 09:20:51;;;;;;;1.30;1.20;;;15.00;83.80;;;;;;4946723;28;20450;-77
2022/10/03 09:23:41;;;;;;;1.30;1.23;;;14.90;80.00;;;;;;4957810;28;20454;-75
2022/10/03 09:26:38;;;;;;;1.50;1.40;;;14.80;81.70;;;;;;4981141;28;20439;-76
2022/10/03 09:29:40;;;;;;;1.40;1.30;;;14.80;81.60;;;;;;4971589;28;20446;-74
2022/10/03 09:32:44;;;;;;;1.30;1.30;;;14.90;82.40;;;;;;4978754;28;20481;-74
2022/10/03 09:35:40;;;;;;;1.30;1.20;;;15.10;81.80;;;;;;4978880;28;20984;-74
2022/10/03 09:38:38;;;;;;;1.10;1.10;;;14.90;82.70;;;;;;4977943;28;20466;-76
2022/10/03 09:41:38;;;;;;;1.30;1.20;;;14.70;83.30;;;;;;4978481;28;20484;-76
2022/10/03 09:44:43;;;;;;;0.90;0.90;;;14.80;82.40;;;;;;4974012;28;20461;-75
2022/10/03 09:47:47;;;;;;;0.97;0.97;;;14.90;82.50;;;;;;4977905;28;20426;-75
2022/10/03 09:51:00;;;;;;;1.20;1.13;;;15.00;82.40;;;;;;4977435;28;20444;-72
2022/10/03 09:53:48;;;;;;;1.40;1.30;;;15.10;79.70;;;;;;4977358;28;20489;-71
2022/10/03 09:56:57;;;;;;;1.40;1.30;;;15.30;80.70;;;;;;4975529;28;20477;-73
2022/10/03 09:59:40;;;;;;;1.40;1.30;;;15.50;80.60;;;;;;4977364;28;20886;-72
2022/10/03 10:02:28;;;;;;;1.10;1.10;;;15.50;80.00;;;;;;4976308;28;20493;-72
2022/10/03 10:05:14;;;;;;;1.00;1.00;;;15.30;79.40;;;;;;4974421;28;20507;-72
2022/10/03 10:08:03;;;;;;;1.23;1.20;;;15.20;78.00;;;;;;4973898;28;20444;-73
2022/10/03 10:10:56;;;;;;;1.50;1.40;;;15.10;79.20;;;;;;4974339;28;20505;-75
2022/10/03 10:14:01;;;;;;;1.10;1.10;;;15.00;78.10;;;;;;4974243;28;20466;-74
2022/10/03 10:16:52;;;;;;;1.10;1.10;;;14.90;78.50;;;;;;4955916;28;20454;-73
2022/10/03 10:19:37;;;;;;;1.30;1.20;;;15.00;80.70;;;;;;4974662;28;20434;-74
2022/10/03 10:22:20;;;;;;;1.13;1.03;;;15.20;81.40;;;;;;4976006;28;20473;-77
2022/10/03 10:25:19;;;;;;;1.07;1.07;;;15.30;81.50;;;;;;4977969;28;20473;-74
2022/10/03 10:28:23;;;;;;;1.10;0.90;;;15.60;79.70;;;;;;4977757;28;20426;-74
2022/10/03 10:31:17;;;;;;;1.00;0.90;;;15.80;78.10;;;;;;4977727;28;20476;-74
2022/10/03 10:34:34;;;;;;;1.00;1.00;;;16.10;79.00;;;;;;4977735;28;20466;-73
2022/10/03 10:37:44;;;;;;;1.10;1.00;;;16.20;76.30;;;;;;4977535;28;20450;-73
2022/10/03 10:40:39;;;;;;;1.07;1.07;;;16.30;76.50;;;;;;4977611;28;20438;-72
2022/10/03 10:43:36;;;;;;;1.10;1.00;;;16.40;76.70;;;;;;4977240;28;20434;-72
2022/10/03 10:46:26;;;;;;;1.10;1.00;;;16.50;76.30;;;;;;4977578;28;20438;-72
2022/10/03 10:49:38;;;;;;;1.10;1.00;;;16.50;76.20;;;;;;4977494;28;20843;-73
2022/10/03 10:52:35;;;;;;;0.97;0.97;;;16.60;75.90;;;;;;4977299;28;20528;-73
2022/10/03 10:55:35;;;;;;;0.80;0.80;;;16.80;76.40;;;;;;4970854;28;20486;-72
2022/10/03 10:58:53;;;;;;;1.00;1.00;;;16.80;77.40;;;;;;4977003;28;20929;-72
2022/10/03 11:01:48;;;;;;;1.37;0.90;;;17.00;76.70;;;;;;4977806;28;20489;-72
2022/10/03 11:05:08;;;;;;;1.00;0.90;;;16.90;70.70;;;;;;4979617;28;20460;-74
2022/10/03 11:08:25;;;;;;;0.97;0.90;;;16.90;73.90;;;;;;4979221;28;20476;-73
2022/10/03 11:11:24;;;;;;;0.80;0.80;;;17.00;74.50;;;;;;4920375;29;20473;-73
2022/10/03 11:14:26;;;;;;;1.13;1.13;;;17.20;73.30;;;;;;4898325;29;20481;-75
2022/10/03 11:17:33;;;;;;;1.47;1.37;;;17.10;74.70;;;;;;4973851;28;20462;-73
2022/10/03 11:20:38;;;;;;;1.20;1.10;;;17.00;75.40;;;;;;4921918;29;20456;-73
2022/10/03 11:23:29;;;;;;;0.97;0.97;;;16.90;75.70;;;;;;4961824;28;20462;-73
2022/10/03 11:26:29;;;;;;;1.30;1.20;;;16.70;75.80;;;;;;4981658;28;20445;-73
2022/10/03 11:29:30;;;;;;;1.20;1.10;;;16.50;77.70;;;;;;4982178;28;20799;-73
2022/10/03 11:32:32;;;;;;;1.30;1.20;;;16.50;77.30;;;;;;4983030;28;20474;-73
2022/10/03 11:35:33;;;;;;;1.10;1.00;;;16.60;77.50;;;;;;4983136;28;20484;-74
2022/10/03 11:38:09;;;;;;;1.07;0.97;;;16.70;78.40;;;;;;4982820;28;20438;-74
2022/10/03 11:40:47;;;;;;;1.43;1.33;;;16.80;77.10;;;;;;4981042;28;20437;-74
2022/10/03 11:43:56;;;;;;;0.80;0.80;;;16.70;76.70;;;;;;4981427;28;20489;-74
2022/10/03 11:46:44;;;;;;;1.10;1.03;;;16.60;74.20;;;;;;4968756;28;20540;-74
2022/10/03 11:49:34;;;;;;;1.20;1.10;;;16.40;75.10;;;;;;4971043;28;21026;-73
2022/10/03 11:52:16;;;;;;;1.00;1.00;;;16.60;76.30;;;;;;4976381;28;20478;-71
2022/10/03 11:54:47;;;;;;;0.80;0.80;;;16.60;75.40;;;;;;4978448;28;21076;-71
2022/10/03 11:57:25;;;;;;;0.80;0.80;;;16.70;74.90;;;;;;4978209;28;20446;-72
2022/10/03 11:59:59;;;;;;;1.03;0.93;;;16.70;74.30;;;;;;4979688;28;20445;-73
2022/10/03 12:03:01;;;;;;;0.80;0.80;;;16.70;74.60;;;;;;4980156;28;20490;-75
2022/10/03 12:05:42;;;;;;;0.80;0.80;;;16.50;76.00;;;;;;4979801;28;20941;-73
2022/10/03 12:11:12;;;;;;;0.80;0.80;;;16.70;76.20;;;;;;4979253;28;20446;-75
2022/10/03 12:13:47;;;;;;;1.10;1.00;;;16.80;75.30;;;;;;4981378;28;20463;-74
2022/10/03 12:16:22;;;;;;;0.80;0.80;;;16.80;74.60;;;;;;4981663;28;20446;-74
2022/10/03 12:18:53;;;;;;;0.90;0.90;;;16.90;74.60;;;;;;4981730;28;20442;-75
2022/10/03 12:21:30;;;;;;;0.70;0.60;;;17.10;72.90;;;;;;4986192;28;20483;-76
2022/10/03 12:24:06;;;;;;;0.83;0.80;;;17.10;71.40;;;;;;4981321;28;20431;-74
2022/10/03 12:26:48;;;;;;;1.83;1.00;;;17.20;72.30;;;;;;4979683;28;20472;-74
2022/10/03 12:29:21;;;;;;;1.03;0.90;;;17.50;71.00;;;;;;4978497;28;20438;-75
2022/10/03 12:32:00;;;;;;;0.80;0.70;;;17.90;70.90;;;;;;4978979;28;20478;-73
2022/10/03 12:34:38;;;;;;;0.80;0.80;;;18.30;68.70;;;;;;4977847;28;20506;-73
2022/10/03 12:37:22;;;;;;;0.70;0.70;;;18.60;65.10;;;;;;4980420;28;20437;-75
2022/10/03 12:40:04;;;;;;;0.87;0.70;;;18.70;65.00;;;;;;4980664;28;20454;-75
2022/10/03 12:42:36;;;;;;;0.80;0.80;;;18.90;63.40;;;;;;4977697;28;20528;-73
2022/10/03 12:45:12;;;;;;;0.70;0.70;;;18.90;65.40;;;;;;4978186;28;20441;-73
2022/10/03 12:47:55;;;;;;;0.77;0.70;;;19.40;63.10;;;;;;4977183;28;20937;-73
2022/10/03 12:50:39;;;;;;;0.90;0.70;;;19.60;63.30;;;;;;4977242;28;20438;-73
2022/10/03 12:53:31;;;;;;;0.80;0.70;;;19.70;64.00;;;;;;4977617;28;20445;-74
2022/10/03 12:56:20;;;;;;;0.80;0.80;;;20.10;62.30;;;;;;4977196;28;20497;-73
2022/10/03 12:59:13;;;;;;;0.93;0.90;;;20.60;60.90;;;;;;4978170;28;20514;-73
2022/10/03 13:02:02;;;;;;;0.70;0.70;;;20.90;59.40;;;;;;4978805;28;20478;-74
2022/10/03 13:04:39;;;;;;;0.70;0.70;;;20.50;58.60;;;;;;4979599;28;20427;-73
2022/10/03 13:07:27;;;;;;;0.73;0.60;;;20.60;59.70;;;;;;4979319;28;20910;-74
2022/10/03 13:10:02;;;;;;;0.80;0.80;;;20.90;57.30;;;;;;4977667;28;20795;-72
2022/10/03 13:12:44;;;;;;;0.60;0.60;;;20.80;58.40;;;;;;4977946;28;20476;-73
2022/10/03 13:15:44;;;;;;;0.70;0.70;;;20.90;58.40;;;;;;4979113;28;20470;-74
2022/10/03 13:18:35;;;;;;;0.70;0.70;;;21.20;59.40;;;;;;4977295;28;20834;-73
2022/10/03 13:21:08;;;;;;;0.70;0.70;;;21.30;57.80;;;;;;4975332;28;20478;-74
2022/10/03 13:23:46;;;;;;;0.80;0.70;;;21.10;58.40;;;;;;4977135;28;20930;-74
2022/10/03 13:26:18;;;;;;;0.80;0.70;;;20.60;59.30;;;;;;4977173;28;20454;-74
2022/10/03 13:29:22;;;;;;;0.70;0.60;;;20.40;60.20;;;;;;4976547;28;20481;-73
2022/10/03 13:35:57;;;;;;;0.70;0.70;;;19.90;62.60;;;;;;4975276;28;20478;-74
2022/10/03 13:38:30;;;;;;;0.70;0.70;;;19.80;63.10;;;;;;4975670;28;20454;-74
2022/10/03 13:41:05;;;;;;;0.73;0.73;;;19.50;63.60;;;;;;4976263;28;20557;-73
2022/10/03 13:43:36;;;;;;;0.77;0.77;;;19.20;63.40;;;;;;4976189;28;20450;-74
2022/10/03 13:46:11;;;;;;;0.63;0.60;;;19.20;64.20;;;;;;4976489;28;20450;-74
2022/10/03 13:48:39;;;;;;;1.00;0.70;;;19.10;64.30;;;;;;4976661;28;20425;-74
2022/10/03 13:51:16;;;;;;;0.80;0.70;;;18.90;65.20;;;;;;4976100;28;20481;-73
2022/10/03 13:54:00;;;;;;;0.80;0.80;;;18.70;66.50;;;;;;4976121;28;20453;-72
2022/10/03 13:56:49;;;;;;;0.70;0.63;;;18.40;65.70;;;;;;4978425;28;20493;-74
2022/10/03 13:59:31;;;;;;;0.70;0.70;;;18.30;66.50;;;;;;4980126;28;20419;-73
2022/10/03 14:02:12;;;;;;;0.70;0.67;;;18.10;66.60;;;;;;4980744;28;20908;-74
2022/10/03 14:05:10;;;;;;;0.80;0.70;;;18.00;67.00;;;;;;4981263;28;20434;-78
2022/10/03 14:07:48;;;;;;;1.00;0.90;;;18.00;67.20;;;;;;4981672;28;20446;-73
2022/10/03 14:10:39;;;;;;;0.67;0.67;;;18.00;67.30;;;;;;4982459;28;20446;-74
2022/10/03 14:13:19;;;;;;;0.70;0.70;;;18.10;67.80;;;;;;4970112;28;20942;-74
2022/10/03 14:15:57;;;;;;;0.73;0.73;;;18.10;67.20;;;;;;4982490;28;20975;-74
2022/10/03 14:18:36;;;;;;;0.70;0.70;;;18.00;67.50;;;;;;4981812;28;20443;-75
2022/10/03 14:21:25;;;;;;;0.70;0.70;;;17.90;66.40;;;;;;4981248;28;20474;-73
2022/10/03 14:24:01;;;;;;;0.70;0.70;;;17.90;67.60;;;;;;4979509;28;20521;-72
2022/10/03 14:26:35;;;;;;;0.80;0.80;;;17.90;66.80;;;;;;4979709;28;20430;-72
2022/10/03 14:29:10;;;;;;;1.00;1.00;;;18.00;67.40;;;;;;4979700;28;20438;-72
2022/10/03 14:31:47;;;;;;;0.87;0.87;;;18.00;65.70;;;;;;4979343;28;20477;-72
2022/10/03 14:34:25;;;;;;;0.70;0.70;;;18.20;65.50;;;;;;4979118;28;20446;-72
2022/10/03 14:36:59;;;;;;;0.70;0.67;;;18.30;65.00;;;;;;4977611;28;20445;-72
2022/10/03 14:39:35;;;;;;;1.00;0.90;;;18.50;64.90;;;;;;4977493;28;20444;-72
2022/10/03 14:42:30;;;;;;;0.80;0.70;;;18.70;64.20;;;;;;4977115;28;20844;-72
2022/10/03 14:45:00;;;;;;;0.80;0.80;;;19.60;61.80;;;;;;4977480;28;20427;-72
2022/10/03 14:47:34;;;;;;;0.83;0.70;;;20.70;59.90;;;;;;4977429;28;20866;-72
2022/10/03 14:50:04;;;;;;;0.90;0.70;;;22.00;56.80;;;;;;4978223;28;20834;-73
2022/10/03 14:52:38;;;;;;;0.70;0.70;;;23.50;53.80;;;;;;4977048;28;21040;-73
2022/10/03 14:55:13;;;;;;;0.80;0.70;;;25.30;50.70;;;;;;4977652;28;20467;-72
2022/10/03 14:57:45;;;;;;;0.70;0.60;;;26.80;47.80;;;;;;4977476;28;20437;-73
2022/10/03 15:00:25;;;;;;;0.80;0.70;;;28.10;45.10;;;;;;4977018;28;20522;-72
2022/10/03 15:02:51;;;;;;;0.70;0.70;;;28.80;42.80;;;;;;4976621;28;20545;-72
2022/10/03 15:05:32;;;;;;;0.70;0.70;;;29.00;42.30;;;;;;4977193;28;20446;-72
2022/10/03 15:08:00;;;;;;;0.70;0.60;;;28.70;42.80;;;;;;4975663;28;20810;-72
2022/10/03 15:10:30;;;;;;;0.70;0.70;;;28.20;43.00;;;;;;4976823;28;20492;-72
2022/10/03 15:13:01;;;;;;;0.80;0.80;;;27.70;43.50;;;;;;4976932;28;20477;-72
2022/10/03 15:15:31;;;;;;;0.70;0.70;;;26.70;45.20;;;;;;4978146;28;21001;-73
2022/10/03 15:18:01;;;;;;;0.60;0.60;;;25.60;46.40;;;;;;4977374;28;20946;-73
2022/10/03 15:20:35;;;;;;;0.80;0.80;;;24.70;47.80;;;;;;4976671;28;20446;-72
2022/10/03 15:23:05;;;;;;;0.70;0.70;;;23.80;50.00;;;;;;4976726;28;20493;-73
2022/10/03 15:25:36;;;;;;;0.80;0.80;;;22.80;50.70;;;;;;4977394;28;20459;-72
2022/10/03 15:28:06;;;;;;;0.87;0.80;;;22.30;52.10;;;;;;4976674;28;20438;-72
2022/10/03 15:30:36;;;;;;;0.70;0.63;;;21.70;53.50;;;;;;4976258;28;20930;-71
2022/10/03 15:33:10;;;;;;;0.80;0.80;;;20.80;55.30;;;;;;4976504;28;20446;-72
2022/10/03 15:35:40;;;;;;;0.80;0.70;;;20.20;57.10;;;;;;4976562;28;20473;-72
2022/10/03 15:38:12;;;;;;;0.73;0.73;;;19.90;57.10;;;;;;4976593;28;20447;-72
2022/10/03 15:40:41;;;;;;;0.87;0.87;;;19.30;58.10;;;;;;4976400;28;20439;-72
2022/10/03 15:43:30;;;;;;;1.27;0.77;;;18.90;59.90;;;;;;4976328;28;20457;-72
2022/10/03 15:46:00;;;;;;;0.77;0.77;;;18.80;60.70;;;;;;4976404;28;20818;-72
2022/10/03 15:48:30;;;;;;;1.23;0.80;;;18.70;62.40;;;;;;4976495;28;20458;-74
2022/10/03 15:50:59;;;;;;;0.80;0.80;;;18.50;61.50;;;;;;4976299;28;20513;-74
2022/10/03 15:53:29;;;;;;;0.70;0.70;;;18.30;61.40;;;;;;4976182;28;20457;-77
2022/10/03 15:55:59;;;;;;;0.60;0.60;;;18.30;61.20;;;;;;4976478;28;20532;-75
2022/10/03 15:58:31;;;;;;;0.70;0.70;;;18.20;62.80;;;;;;4976159;28;20435;-77
2022/10/03 16:01:05;;;;;;;0.80;0.80;;;18.10;63.70;;;;;;4975862;28;20494;-74
2022/10/03 16:03:34;;;;;;;0.73;0.73;;;18.00;63.40;;;;;;4975998;28;20457;-74
2022/10/03 16:06:10;;;;;;;0.70;0.70;;;17.90;64.40;;;;;;4975838;28;20438;-72
2022/10/03 16:08:51;;;;;;;1.10;1.00;;;17.90;63.70;;;;;;4975942;28;20438;-75
2022/10/03 16:11:22;;;;;;;0.70;0.70;;;17.90;64.10;;;;;;4975885;28;20473;-74
2022/10/03 16:13:59;;;;;;;0.80;0.70;;;17.80;65.40;;;;;;4975703;28;20439;-75
2022/10/03 16:16:35;;;;;;;0.80;0.80;;;17.80;65.30;;;;;;4975840;28;20481;-73
2022/10/03 16:19:22;;;;;;;1.03;1.00;;;17.80;65.60;;;;;;4975753;28;20473;-74
2022/10/03 16:21:55;;;;;;;1.00;0.90;;;17.70;65.40;;;;;;4975490;28;20478;-75
2022/10/03 16:24:31;;;;;;;0.70;0.70;;;17.60;66.10;;;;;;4975953;28;20489;-74
2022/10/03 16:27:06;;;;;;;1.00;0.80;;;17.60;66.60;;;;;;4976305;28;20504;-74
2022/10/03 16:29:36;;;;;;;0.83;0.83;;;17.50;67.30;;;;;;4976303;28;20426;-74
2022/10/03 16:32:06;;;;;;;0.80;0.80;;;17.50;67.70;;;;;;4975503;28;20474;-75
2022/10/03 16:34:34;;;;;;;0.80;0.80;;;17.40;68.50;;;;;;4975364;28;20954;-75
2022/10/03 16:37:14;;;;;;;0.80;0.80;;;17.40;69.40;;;;;;4975623;28;20492;-74
2022/10/03 16:39:43;;;;;;;0.70;0.70;;;17.30;69.70;;;;;;4975409;28;20936;-75
2022/10/03 16:42:15;;;;;;;1.10;1.10;;;17.20;70.20;;;;;;4975524;28;20833;-75
2022/10/03 16:44:50;;;;;;;0.70;0.70;;;17.10;70.40;;;;;;4975458;28;20461;-75
2022/10/03 16:47:20;;;;;;;0.90;0.70;;;17.00;70.40;;;;;;4975489;28;20426;-75
2022/10/03 16:52:42;;;;;;;0.70;0.70;;;16.80;71.10;;;;;;4975170;28;20450;-75
2022/10/03 16:55:17;;;;;;;0.80;0.70;;;16.70;71.20;;;;;;4975341;28;20445;-75
2022/10/03 16:57:49;;;;;;;0.70;0.70;;;16.60;71.80;;;;;;4974924;28;20438;-75
2022/10/03 17:00:21;;;;;;;0.80;0.80;;;16.50;72.00;;;;;;4975302;28;20438;-75
2022/10/03 17:02:48;;;;;;;1.10;1.00;;;16.40;72.20;;;;;;4974867;28;20481;-77
2022/10/03 17:05:16;;;;;;;1.63;1.53;;;16.30;72.10;;;;;;4975474;28;20505;-75
2022/10/03 17:07:46;;;;;;;1.27;1.27;;;16.20;72.30;;;;;;4980782;28;21037;-76
2022/10/03 17:10:31;;;;;;;0.90;0.90;;;16.10;72.60;;;;;;4982268;28;20435;-77
2022/10/03 17:13:00;;;;;;;1.00;1.00;;;16.00;72.60;;;;;;4983030;28;20450;-77
2022/10/03 17:15:30;;;;;;;1.20;1.10;;;15.90;72.90;;;;;;4979764;28;20490;-73
2022/10/03 17:18:03;;;;;;;1.03;1.03;;;15.80;73.30;;;;;;4979045;28;20788;-76
2022/10/03 17:20:39;;;;;;;0.80;0.80;;;15.80;73.50;;;;;;4975043;28;20430;-76
2022/10/03 17:23:15;;;;;;;1.10;1.00;;;15.70;73.60;;;;;;4974854;28;20437;-72
2022/10/03 17:25:50;;;;;;;0.97;0.97;;;15.60;73.80;;;;;;4974824;28;20430;-73
2022/10/03 17:28:29;;;;;;;1.07;1.07;;;15.50;74.30;;;;;;4974876;28;20445;-72
2022/10/03 17:31:00;;;;;;;0.90;0.90;;;15.40;74.60;;;;;;4974010;28;20477;-73
2022/10/03 17:33:36;;;;;;;1.27;1.27;;;15.30;75.00;;;;;;4974716;28;20434;-73
2022/10/03 17:36:31;;;;;;;2.00;1.90;;;15.30;75.20;;;;;;4974229;28;20845;-73
2022/10/03 17:39:02;;;;;;;2.03;1.93;;;15.20;75.40;;;;;;4974702;28;20494;-74
2022/10/03 17:41:38;;;;;;;1.63;1.53;;;15.10;75.70;;;;;;4974224;28;20470;-74